createdAt,value
2022-08-26T00:01:54.440Z,20.99
2022-08-26T00:04:26.506Z,20.95
2022-08-26T00:06:55.665Z,20.93
2022-08-26T00:09:23.106Z,20.92
2022-08-26T00:11:52.030Z,20.80
2022-08-26T00:14:18.486Z,20.86
2022-08-26T00:16:49.869Z,20.82
2022-08-26T00:19:25.687Z,20.81
2022-08-26T00:21:53.476Z,20.83
2022-08-26T00:24:22.332Z,20.82
2022-08-26T00:26:50.587Z,20.80
2022-08-26T00:29:21.230Z,20.81
2022-08-26T00:31:54.716Z,20.79
2022-08-26T00:34:21.144Z,20.81
2022-08-26T00:36:52.844Z,20.82
2022-08-26T00:39:21.957Z,20.86
2022-08-26T00:41:50.915Z,20.87
2022-08-26T00:44:17.874Z,20.83
2022-08-26T00:46:53.583Z,20.82
2022-08-26T00:49:27.204Z,20.82
2022-08-26T00:52:03.275Z,20.81
2022-08-26T00:54:38.553Z,20.88
2022-08-26T00:57:16.375Z,20.83
2022-08-26T00:59:49.119Z,20.78
2022-08-26T01:02:20.998Z,20.83
2022-08-26T01:04:54.226Z,20.81
2022-08-26T01:07:22.360Z,20.74
2022-08-26T01:09:52.083Z,20.70
2022-08-26T01:12:21.964Z,20.73
2022-08-26T01:14:52.228Z,20.63
2022-08-26T01:17:28.743Z,20.66
2022-08-26T01:20:10.044Z,20.58
2022-08-26T01:23:08.937Z,20.56
2022-08-26T01:25:43.106Z,20.57
2022-08-26T01:28:22.995Z,20.55
2022-08-26T01:30:53.027Z,20.55
2022-08-26T01:33:26.591Z,20.54
2022-08-26T01:35:53.465Z,20.53
2022-08-26T01:38:20.285Z,20.53
2022-08-26T01:40:51.256Z,20.55
2022-08-26T01:43:25.881Z,20.50
2022-08-26T01:45:55.936Z,20.51
2022-08-26T01:48:28.195Z,20.44
2022-08-26T01:50:58.503Z,20.31
2022-08-26T01:53:26.866Z,20.31
2022-08-26T01:56:03.499Z,20.24
2022-08-26T01:58:38.971Z,20.23
2022-08-26T02:01:07.381Z,20.17
2022-08-26T02:03:50.834Z,20.09
2022-08-26T02:06:19.676Z,20.06
2022-08-26T02:08:56.375Z,20.03
2022-08-26T02:11:25.522Z,20.03
2022-08-26T02:13:58.431Z,19.97
2022-08-26T02:16:27.313Z,19.85
2022-08-26T02:18:55.713Z,19.85
2022-08-26T02:21:25.069Z,19.82
2022-08-26T02:23:58.802Z,19.85
2022-08-26T02:26:30.893Z,19.81
2022-08-26T02:29:15.797Z,19.75
2022-08-26T02:31:42.262Z,19.78
2022-08-26T02:34:21.808Z,19.81
2022-08-26T02:36:49.318Z,19.82
2022-08-26T02:39:22.355Z,19.76
2022-08-26T02:41:51.364Z,19.78
2022-08-26T02:44:17.962Z,19.74
2022-08-26T02:46:47.374Z,19.76
2022-08-26T02:49:20.397Z,19.75
2022-08-26T02:51:49.770Z,19.75
2022-08-26T02:54:23.689Z,19.76
2022-08-26T02:56:51.279Z,19.79
2022-08-26T02:59:18.242Z,19.78
2022-08-26T03:01:49.012Z,19.77
2022-08-26T03:04:28.817Z,19.75
2022-08-26T03:06:59.878Z,19.71
2022-08-26T03:09:33.821Z,19.71
2022-08-26T03:12:00.934Z,19.70
2022-08-26T03:14:33.849Z,19.64
2022-08-26T03:17:00.347Z,19.65
2022-08-26T03:19:39.859Z,19.67
2022-08-26T03:22:14.755Z,19.67
2022-08-26T03:24:48.841Z,19.66
2022-08-26T03:27:15.810Z,19.65
2022-08-26T03:30:08.855Z,19.60
2022-08-26T03:32:38.377Z,19.53
2022-08-26T03:35:14.843Z,19.50
2022-08-26T03:37:41.377Z,19.45
2022-08-26T03:40:11.567Z,19.41
2022-08-26T03:42:40.356Z,19.40
2022-08-26T03:45:12.421Z,19.39
2022-08-26T03:47:40.507Z,19.40
2022-08-26T03:50:14.728Z,19.38
2022-08-26T03:52:43.998Z,19.40
2022-08-26T03:55:11.091Z,19.39
2022-08-26T03:57:40.181Z,19.36
2022-08-26T04:00:14.474Z,19.38
2022-08-26T04:02:46.743Z,19.41
2022-08-26T04:05:17.808Z,19.40
2022-08-26T04:07:48.612Z,19.40
2022-08-26T04:10:22.029Z,19.42
2022-08-26T04:12:55.346Z,19.44
2022-08-26T04:15:25.250Z,19.41
2022-08-26T04:17:54.379Z,19.40
2022-08-26T04:20:30.891Z,19.41
2022-08-26T04:23:00.197Z,19.43
2022-08-26T04:25:26.648Z,19.43
2022-08-26T04:27:53.085Z,19.43
2022-08-26T04:30:20.127Z,19.42
2022-08-26T04:32:48.715Z,19.42
2022-08-26T04:35:15.103Z,19.39
2022-08-26T04:37:42.979Z,19.42
2022-08-26T04:40:10.480Z,19.43
2022-08-26T04:42:37.045Z,19.44
2022-08-26T04:45:05.764Z,19.44
2022-08-26T04:47:42.957Z,19.44
2022-08-26T04:50:10.918Z,19.45
2022-08-26T04:52:45.920Z,19.44
2022-08-26T04:55:12.598Z,19.48
2022-08-26T04:57:40.487Z,19.53
2022-08-26T05:00:12.847Z,19.54
2022-08-26T05:02:40.886Z,19.61
2022-08-26T05:05:07.718Z,19.67
2022-08-26T05:07:41.922Z,19.74
2022-08-26T05:10:11.373Z,19.81
2022-08-26T05:12:43.041Z,19.84
2022-08-26T05:15:11.139Z,19.91
2022-08-26T05:17:37.995Z,19.94
2022-08-26T05:20:06.905Z,19.99
2022-08-26T05:22:40.987Z,20.00
2022-08-26T05:25:10.439Z,20.01
2022-08-26T05:27:37.619Z,20.07
2022-08-26T05:30:06.647Z,20.11
2022-08-26T05:32:33.162Z,20.12
2022-08-26T05:34:59.654Z,20.18
2022-08-26T05:37:27.141Z,20.22
2022-08-26T05:39:53.608Z,20.25
2022-08-26T05:42:20.047Z,20.29
2022-08-26T05:44:55.773Z,20.31
2022-08-26T05:47:26.189Z,20.39
2022-08-26T05:49:53.046Z,20.43
2022-08-26T05:52:19.984Z,20.47
2022-08-26T05:54:47.673Z,20.53
2022-08-26T05:57:16.610Z,20.60
2022-08-26T05:59:45.091Z,20.65
2022-08-26T06:02:19.028Z,20.72
2022-08-26T06:04:45.946Z,20.78
2022-08-26T06:07:12.496Z,20.81
2022-08-26T06:09:46.981Z,20.83
2022-08-26T06:12:15.790Z,20.81
2022-08-26T06:14:50.976Z,20.79
2022-08-26T06:17:17.370Z,20.79
2022-08-26T06:19:44.262Z,20.76
2022-08-26T06:22:30.670Z,20.80
2022-08-26T06:25:18.010Z,20.95
2022-08-26T06:27:44.518Z,21.10
2022-08-26T06:30:14.528Z,21.26
2022-08-26T06:32:41.707Z,21.44
2022-08-26T06:35:12.095Z,21.70
2022-08-26T06:37:39.072Z,21.90
2022-08-26T06:40:08.769Z,22.06
2022-08-26T06:42:47.005Z,22.23
2022-08-26T06:45:13.821Z,22.45
2022-08-26T06:47:40.326Z,22.67
2022-08-26T06:50:07.084Z,22.88
2022-08-26T06:52:36.265Z,22.99
2022-08-26T06:55:03.757Z,23.18
2022-08-26T06:57:41.133Z,23.27
2022-08-26T07:00:10.449Z,23.25
2022-08-26T07:02:46.872Z,23.41
2022-08-26T07:05:13.735Z,23.62
2022-08-26T07:07:47.006Z,23.67
2022-08-26T07:10:14.815Z,23.90
2022-08-26T07:12:47.995Z,23.86
2022-08-26T07:15:15.041Z,23.96
2022-08-26T07:17:41.491Z,24.05
2022-08-26T07:20:16.038Z,24.31
2022-08-26T07:22:50.187Z,24.44
2022-08-26T07:25:16.782Z,24.55
2022-08-26T07:27:54.100Z,24.57
2022-08-26T07:30:24.859Z,24.69
2022-08-26T07:32:51.275Z,24.81
2022-08-26T07:35:17.951Z,24.90
2022-08-26T07:37:46.730Z,24.90
2022-08-26T07:40:13.333Z,24.87
2022-08-26T07:42:42.720Z,24.89
2022-08-26T07:45:14.091Z,24.89
2022-08-26T07:47:40.556Z,24.79
2022-08-26T07:50:08.094Z,24.69
2022-08-26T07:52:41.064Z,24.69
2022-08-26T07:55:13.372Z,24.64
2022-08-26T07:57:46.044Z,24.57
2022-08-26T08:00:16.571Z,24.52
2022-08-26T08:02:53.061Z,24.56
2022-08-26T08:05:33.272Z,24.50
2022-08-26T08:08:27.304Z,24.46
2022-08-26T08:10:56.036Z,24.51
2022-08-26T08:13:32.104Z,24.60
2022-08-26T08:15:58.586Z,24.62
2022-08-26T08:18:25.026Z,24.72
2022-08-26T08:20:54.686Z,24.83
2022-08-26T08:23:38.698Z,24.98
2022-08-26T08:26:11.042Z,25.06
2022-08-26T08:28:38.463Z,25.35
2022-08-26T08:31:05.971Z,25.69
2022-08-26T08:33:40.091Z,25.77
2022-08-26T08:36:07.642Z,25.86
2022-08-26T08:38:37.073Z,26.13
2022-08-26T08:41:03.596Z,26.11
2022-08-26T08:43:40.279Z,26.14
2022-08-26T08:46:12.249Z,26.16
2022-08-26T08:48:43.660Z,26.09
2022-08-26T08:51:13.884Z,26.11
2022-08-26T08:53:54.650Z,26.11
2022-08-26T08:56:30.304Z,26.18
2022-08-26T08:59:07.360Z,26.18
2022-08-26T09:01:36.459Z,26.22
2022-08-26T09:04:22.868Z,26.33
2022-08-26T09:06:54.522Z,26.30
2022-08-26T09:09:35.116Z,26.27
2022-08-26T09:12:04.965Z,26.32
2022-08-26T09:14:38.121Z,26.44
2022-08-26T09:17:13.268Z,26.69
2022-08-26T09:19:52.111Z,26.56
2022-08-26T09:22:34.090Z,26.50
2022-08-26T09:25:08.123Z,26.57
2022-08-26T09:27:50.477Z,26.72
2022-08-26T09:30:28.016Z,26.75
2022-08-26T09:33:01.474Z,26.87
2022-08-26T09:35:37.026Z,26.95
2022-08-26T09:38:28.141Z,27.11
2022-08-26T09:41:05.154Z,27.23
2022-08-26T09:43:37.465Z,27.19
2022-08-26T09:46:25.227Z,27.13
2022-08-26T09:48:53.073Z,27.05
2022-08-26T09:51:23.258Z,27.22
2022-08-26T09:53:58.681Z,27.25
2022-08-26T09:56:46.175Z,27.44
2022-08-26T09:59:13.276Z,27.37
2022-08-26T10:01:44.818Z,27.37
2022-08-26T10:04:21.114Z,27.37
2022-08-26T10:07:07.163Z,27.51
2022-08-26T10:09:40.580Z,27.68
2022-08-26T10:12:13.279Z,27.83
2022-08-26T10:14:57.180Z,27.80
2022-08-26T10:17:47.532Z,28.06
2022-08-26T10:20:41.157Z,28.32
2022-08-26T10:23:17.958Z,28.36
2022-08-26T10:26:05.081Z,28.54
2022-08-26T10:28:33.100Z,28.64
2022-08-26T10:31:15.978Z,28.64
2022-08-26T10:33:42.484Z,28.64
2022-08-26T10:36:39.303Z,28.85
2022-08-26T10:39:37.847Z,29.15
2022-08-26T10:42:13.736Z,29.13
2022-08-26T10:44:44.260Z,29.20
2022-08-26T10:47:22.289Z,29.16
2022-08-26T10:49:52.309Z,29.31
2022-08-26T10:52:41.253Z,29.32
2022-08-26T10:55:40.521Z,29.39
2022-08-26T10:58:31.656Z,29.39
2022-08-26T11:01:51.020Z,29.48
2022-08-26T11:04:38.988Z,29.44
2022-08-26T11:07:35.255Z,29.56
2022-08-26T11:10:24.474Z,29.63
2022-08-26T11:13:00.405Z,29.75
2022-08-26T11:15:28.051Z,29.81
2022-08-26T11:18:05.657Z,29.82
2022-08-26T11:20:55.264Z,29.87
2022-08-26T11:23:27.130Z,29.94
2022-08-26T11:26:03.275Z,30.06
2022-08-26T11:28:36.521Z,30.16
2022-08-26T11:31:05.391Z,30.12
2022-08-26T11:33:58.187Z,30.22
2022-08-26T11:36:49.015Z,30.28
2022-08-26T11:39:28.668Z,30.35
2022-08-26T11:42:15.997Z,30.59
2022-08-26T11:44:49.378Z,30.66
2022-08-26T11:47:24.614Z,30.71
2022-08-26T11:50:09.912Z,30.61
2022-08-26T11:52:41.378Z,30.64
2022-08-26T11:55:17.053Z,30.85
2022-08-26T11:57:50.597Z,30.96
2022-08-26T12:00:21.180Z,31.01
2022-08-26T12:02:50.080Z,30.94
2022-08-26T12:05:30.836Z,31.10
2022-08-26T12:08:02.777Z,31.34
2022-08-26T12:10:33.936Z,31.41
2022-08-26T12:13:04.228Z,31.63
2022-08-26T12:15:33.299Z,31.66
2022-08-26T12:18:29.324Z,31.69
2022-08-26T12:21:35.288Z,31.56
2022-08-26T12:24:10.272Z,31.66
2022-08-26T12:26:37.105Z,31.81
2022-08-26T12:29:26.950Z,31.99
2022-08-26T12:32:13.217Z,31.88
2022-08-26T12:34:46.023Z,31.88
2022-08-26T12:37:18.895Z,31.87
2022-08-26T12:39:45.649Z,31.94
2022-08-26T12:42:12.087Z,31.76
2022-08-26T12:44:53.676Z,31.78
2022-08-26T12:47:42.878Z,31.82
2022-08-26T12:50:19.238Z,32.01
2022-08-26T12:52:56.267Z,31.83
2022-08-26T12:55:29.704Z,31.80
2022-08-26T12:58:15.956Z,31.83
2022-08-26T13:00:45.949Z,31.88
2022-08-26T13:03:35.109Z,31.84
2022-08-26T13:06:15.818Z,31.56
2022-08-26T13:08:44.081Z,31.59
2022-08-26T13:11:18.587Z,31.92
2022-08-26T13:13:45.773Z,32.01
2022-08-26T13:16:14.588Z,32.34
2022-08-26T13:18:40.994Z,32.40
2022-08-26T13:21:25.369Z,32.54
2022-08-26T13:24:08.297Z,32.65
2022-08-26T13:26:35.654Z,32.66
2022-08-26T13:29:02.719Z,32.77
2022-08-26T13:31:35.432Z,32.69
2022-08-26T13:34:03.598Z,32.77
2022-08-26T13:36:34.843Z,32.79
2022-08-26T13:39:01.415Z,32.62
2022-08-26T13:41:34.345Z,32.46
2022-08-26T13:44:01.663Z,32.56
2022-08-26T13:46:35.427Z,32.58
2022-08-26T13:49:02.878Z,32.64
2022-08-26T13:51:36.408Z,32.54
2022-08-26T13:54:03.236Z,32.54
2022-08-26T13:56:39.373Z,32.72
2022-08-26T13:59:06.583Z,32.62
2022-08-26T14:01:40.449Z,32.48
2022-08-26T14:04:11.719Z,32.66
2022-08-26T14:06:46.330Z,32.60
2022-08-26T14:09:16.788Z,32.33
2022-08-26T14:11:50.905Z,32.22
2022-08-26T14:14:21.484Z,32.06
2022-08-26T14:16:58.774Z,31.92
2022-08-26T14:19:27.710Z,31.81
2022-08-26T14:21:54.168Z,31.92
2022-08-26T14:24:29.590Z,31.71
2022-08-26T14:26:56.092Z,31.76
2022-08-26T14:29:22.603Z,31.85
2022-08-26T14:31:49.028Z,31.79
2022-08-26T14:34:17.978Z,31.76
2022-08-26T14:36:44.355Z,31.86
2022-08-26T14:39:13.088Z,32.00
2022-08-26T14:42:03.398Z,32.26
2022-08-26T14:44:32.667Z,32.49
2022-08-26T14:47:08.418Z,32.49
2022-08-26T14:49:34.981Z,32.55
2022-08-26T14:52:02.014Z,32.52
2022-08-26T14:54:29.472Z,32.42
2022-08-26T14:57:04.047Z,32.27
2022-08-26T14:59:35.580Z,32.24
2022-08-26T15:02:02.881Z,32.11
2022-08-26T15:04:29.857Z,32.04
2022-08-26T15:07:05.418Z,31.78
2022-08-26T15:09:37.448Z,31.47
2022-08-26T15:12:04.884Z,31.43
2022-08-26T15:14:33.055Z,31.39
2022-08-26T15:17:00.427Z,31.25
2022-08-26T15:19:30.116Z,31.17
2022-08-26T15:22:03.907Z,30.83
2022-08-26T15:24:36.905Z,29.83
2022-08-26T15:27:03.533Z,29.78
2022-08-26T15:29:30.005Z,29.59
2022-08-26T15:31:58.501Z,29.66
2022-08-26T15:34:25.039Z,29.71
2022-08-26T15:36:51.423Z,29.51
2022-08-26T15:39:19.194Z,29.59
2022-08-26T15:41:46.427Z,29.29
2022-08-26T15:44:14.193Z,28.37
2022-08-26T15:46:40.956Z,27.30
2022-08-26T15:49:07.732Z,26.27
2022-08-26T15:51:47.497Z,25.55
2022-08-26T15:54:16.642Z,25.38
2022-08-26T15:56:50.481Z,25.40
2022-08-26T15:59:20.961Z,25.23
2022-08-26T16:01:54.549Z,25.24
2022-08-26T16:04:21.152Z,25.13
2022-08-26T16:06:56.468Z,24.88
2022-08-26T16:09:26.833Z,24.55
2022-08-26T16:12:01.487Z,24.31
2022-08-26T16:14:27.969Z,24.20
2022-08-26T16:17:01.489Z,24.16
2022-08-26T16:19:27.945Z,24.10
2022-08-26T16:22:07.507Z,24.10
2022-08-26T16:24:34.517Z,24.20
2022-08-26T16:27:12.539Z,23.99
2022-08-26T16:29:39.698Z,23.99
2022-08-26T16:32:15.483Z,23.83
2022-08-26T16:34:56.402Z,23.83
2022-08-26T16:37:29.505Z,23.70
2022-08-26T16:39:55.969Z,23.81
2022-08-26T16:42:22.419Z,24.04
2022-08-26T16:44:48.867Z,24.13
2022-08-26T16:47:16.245Z,24.16
2022-08-26T16:49:42.973Z,23.96
2022-08-26T16:52:10.986Z,23.87
2022-08-26T16:54:41.378Z,23.88
2022-08-26T16:57:09.752Z,23.79
2022-08-26T16:59:36.250Z,23.62
2022-08-26T17:02:02.963Z,23.63
2022-08-26T17:04:29.478Z,23.46
2022-08-26T17:06:56.588Z,23.43
2022-08-26T17:09:23.006Z,23.39
2022-08-26T17:11:50.651Z,23.24
2022-08-26T17:14:17.587Z,23.19
2022-08-26T17:16:44.616Z,23.19
2022-08-26T17:19:11.639Z,23.18
2022-08-26T17:21:46.576Z,23.21
2022-08-26T17:24:13.600Z,23.26
2022-08-26T17:26:52.621Z,23.23
2022-08-26T17:29:22.161Z,23.20
2022-08-26T17:31:55.569Z,23.25
2022-08-26T17:34:22.611Z,23.65
2022-08-26T17:36:52.004Z,23.68
2022-08-26T17:39:18.442Z,23.77
2022-08-26T17:41:44.969Z,23.85
2022-08-26T17:44:11.446Z,23.95
2022-08-26T17:46:38.540Z,24.03
2022-08-26T17:49:05.642Z,24.16
2022-08-26T17:51:39.590Z,24.15
2022-08-26T17:54:09.152Z,24.18
2022-08-26T17:56:44.579Z,24.23
2022-08-26T17:59:11.743Z,24.27
2022-08-26T18:01:46.644Z,24.28
2022-08-26T18:04:14.692Z,24.35
2022-08-26T18:06:49.616Z,24.40
2022-08-26T18:09:18.468Z,24.45
2022-08-26T18:11:51.599Z,24.47
2022-08-26T18:14:17.989Z,24.47
2022-08-26T18:16:44.366Z,24.46
2022-08-26T18:19:10.818Z,24.50
2022-08-26T18:21:57.596Z,24.52
2022-08-26T18:24:24.480Z,24.55
2022-08-26T18:26:51.029Z,24.57
2022-08-26T18:29:19.801Z,24.56
2022-08-26T18:31:53.616Z,24.60
2022-08-26T18:34:20.918Z,24.63
2022-08-26T18:36:56.680Z,24.63
2022-08-26T18:39:25.420Z,24.63
2022-08-26T18:41:59.590Z,24.63
2022-08-26T18:44:26.061Z,24.67
2022-08-26T18:47:01.614Z,24.66
2022-08-26T18:49:32.850Z,24.61
2022-08-26T18:52:00.453Z,24.63
2022-08-26T18:54:26.940Z,24.62
2022-08-26T18:56:56.407Z,24.61
2022-08-26T18:59:28.804Z,24.62
2022-08-26T19:01:57.655Z,24.60
2022-08-26T19:04:26.611Z,24.57
2022-08-26T19:06:53.626Z,24.53
2022-08-26T19:09:22.352Z,24.56
2022-08-26T19:11:50.020Z,24.57
2022-08-26T19:14:16.817Z,24.58
2022-08-26T19:16:46.201Z,24.52
2022-08-26T19:19:14.745Z,24.49
2022-08-26T19:22:03.645Z,24.53
2022-08-26T19:24:30.065Z,24.47
2022-08-26T19:26:59.376Z,24.50
2022-08-26T19:29:34.436Z,24.51
2022-08-26T19:32:01.972Z,24.53
2022-08-26T19:34:28.572Z,24.51
2022-08-26T19:37:03.659Z,24.46
2022-08-26T19:39:30.189Z,24.40
2022-08-26T19:42:06.760Z,24.35
2022-08-26T19:44:51.784Z,24.31
2022-08-26T19:47:18.381Z,24.25
2022-08-26T19:49:45.651Z,24.17
2022-08-26T19:52:12.622Z,24.18
2022-08-26T19:54:39.826Z,24.12
2022-08-26T19:57:06.453Z,24.07
2022-08-26T19:59:36.199Z,24.06
2022-08-26T20:02:11.754Z,24.02
2022-08-26T20:04:41.802Z,23.97
2022-08-26T20:07:18.948Z,23.63
2022-08-26T20:09:47.319Z,23.15
2022-08-26T20:12:21.679Z,22.94
2022-08-26T20:14:48.147Z,23.03
2022-08-26T20:17:16.010Z,23.04
2022-08-26T20:20:01.067Z,23.09
2022-08-26T20:22:28.097Z,23.00
2022-08-26T20:24:54.628Z,22.97
2022-08-26T20:27:34.372Z,23.04
2022-08-26T20:30:09.261Z,23.05
2022-08-26T20:32:36.430Z,23.00
2022-08-26T20:35:04.091Z,22.95
2022-08-26T20:37:30.476Z,22.81
2022-08-26T20:39:57.338Z,22.90
2022-08-26T20:42:26.931Z,22.90
2022-08-26T20:44:54.520Z,22.83
2022-08-26T20:47:30.758Z,22.91
2022-08-26T20:49:57.309Z,22.72
2022-08-26T20:52:30.718Z,22.76
2022-08-26T20:55:04.252Z,22.83
2022-08-26T20:57:36.711Z,22.90
2022-08-26T21:00:05.589Z,22.92
2022-08-26T21:02:38.744Z,22.99
2022-08-26T21:05:06.066Z,22.99
2022-08-26T21:07:39.747Z,23.02
2022-08-26T21:10:06.587Z,23.05
2022-08-26T21:12:33.079Z,23.07
2022-08-26T21:14:59.571Z,23.06
2022-08-26T21:17:25.976Z,23.03
2022-08-26T21:19:55.372Z,23.02
2022-08-26T21:22:30.757Z,22.98
2022-08-26T21:24:57.190Z,23.02
2022-08-26T21:27:26.316Z,23.06
2022-08-26T21:29:56.709Z,23.04
2022-08-26T21:32:23.349Z,22.96
2022-08-26T21:34:54.815Z,23.01
2022-08-26T21:37:23.661Z,22.99
2022-08-26T21:39:57.069Z,22.97
2022-08-26T21:42:27.827Z,23.01
2022-08-26T21:44:56.815Z,23.03
2022-08-26T21:47:24.456Z,23.04
2022-08-26T21:49:51.624Z,23.07
2022-08-26T21:52:18.081Z,23.08
2022-08-26T21:54:49.913Z,23.10
2022-08-26T21:57:25.763Z,23.15
2022-08-26T21:59:52.583Z,23.17
2022-08-26T22:02:19.522Z,23.19
2022-08-26T22:04:48.834Z,23.17
2022-08-26T22:07:22.861Z,23.19
2022-08-26T22:09:50.033Z,23.18
2022-08-26T22:12:18.162Z,23.12
2022-08-26T22:14:45.505Z,23.01
2022-08-26T22:17:18.813Z,23.01
2022-08-26T22:19:45.860Z,22.92
2022-08-26T22:22:32.787Z,22.86
2022-08-26T22:25:02.346Z,22.76
2022-08-26T22:27:28.771Z,22.74
2022-08-26T22:29:55.549Z,22.72
2022-08-26T22:32:23.351Z,22.65
2022-08-26T22:34:49.833Z,22.64
2022-08-26T22:37:16.250Z,22.59
2022-08-26T22:39:42.737Z,22.49
2022-08-26T22:42:09.269Z,22.40
2022-08-26T22:44:36.948Z,22.40
2022-08-26T22:47:03.587Z,22.32
2022-08-26T22:49:30.470Z,22.32
2022-08-26T22:51:56.910Z,22.22
2022-08-26T22:54:25.935Z,22.20
2022-08-26T22:56:58.804Z,22.21
2022-08-26T22:59:25.244Z,22.20
2022-08-26T23:01:51.719Z,22.21
2022-08-26T23:04:18.679Z,22.15
2022-08-26T23:06:47.459Z,22.12
2022-08-26T23:09:17.020Z,22.09
2022-08-26T23:11:50.838Z,22.02
2022-08-26T23:14:20.826Z,22.01
2022-08-26T23:16:56.889Z,22.02
2022-08-26T23:19:23.868Z,21.98
2022-08-26T23:22:14.835Z,21.92
2022-08-26T23:24:41.470Z,21.86
2022-08-26T23:27:07.954Z,21.85
2022-08-26T23:29:35.683Z,21.87
2022-08-26T23:32:05.149Z,21.83
2022-08-26T23:34:50.392Z,21.83
2022-08-26T23:37:20.361Z,21.81
2022-08-26T23:39:48.255Z,21.83
2022-08-26T23:42:16.021Z,21.83
2022-08-26T23:44:44.875Z,21.83
2022-08-26T23:47:11.649Z,21.78
2022-08-26T23:49:38.141Z,21.72
2022-08-26T23:52:24.255Z,21.69
2022-08-26T23:54:52.347Z,21.65
2022-08-26T23:57:23.309Z,21.60
2022-08-26T23:59:53.057Z,21.54
